Time;durP1;ratioP1;P1;durP2;ratioP2;P2;SDS_P1;SDS_P2;PMS_P1;PMS_P2;Temp;Humidity;BMP_temperature;BMP_pressure;BME280_temperature;BME280_humidity;BME280_pressure;Samples;Min_cycle;Max_cycle;Signal;HPM_P1;HPM_P2
2024/01/07 00:00:17;;;;;;;;;;;;;;;5.17;73.79;97302.72;5094223;28;19920;-58
2024/01/07 00:03:05;;;;;;;;;;;;;;;5.30;72.61;97299.28;5095636;28;19920;-57
2024/01/07 00:05:53;;;;;;;;;;;;;;;5.22;72.78;97302.63;5097251;28;19926;-57
2024/01/07 00:08:43;;;;;;;;;;;;;;;5.14;72.96;97301.38;5100475;27;19931;-57
2024/01/07 00:11:31;;;;;;;;;;;;;;;5.15;73.10;97307.56;5093746;27;19920;-57
2024/01/07 00:14:19;;;;;;;;;;;;;;;5.14;73.46;97306.78;5102384;28;19920;-58
2024/01/07 00:17:07;;;;;;;;;;;;;;;4.99;73.68;97297.00;5100916;28;19968;-58
2024/01/07 00:19:55;;;;;;;;;;;;;;;5.02;73.46;97302.91;5100114;28;19927;-58
2024/01/07 00:22:43;;;;;;;;;;;;;;;5.01;73.94;97302.13;5104460;27;19924;-57
2024/01/07 00:25:33;;;;;;;;;;;;;;;4.97;73.70;97298.41;5103138;27;19926;-57
2024/01/07 00:28:20;;;;;;;;;;;;;;;5.10;73.12;97294.97;5102028;28;19920;-58
2024/01/07 00:31:09;;;;;;;;;;;;;;;4.96;73.97;97302.19;5094603;27;19920;-57
2024/01/07 00:33:57;;;;;;;;;;;;;;;5.09;73.40;97306.03;5108333;27;20285;-58
2024/01/07 00:36:46;;;;;;;;;;;;;;;5.08;73.45;97307.94;5090470;28;19981;-59
2024/01/07 00:39:34;;;;;;;;;;;;;;;5.09;73.52;97309.53;5100467;28;20018;-58
2024/01/07 00:42:23;;;;;;;;;;;;;;;5.11;73.64;97306.53;5112460;27;20061;-58
2024/01/07 00:45:12;;;;;;;;;;;;;;;4.99;73.77;97307.78;5109547;27;19920;-60
2024/01/07 00:48:00;;;;;;;;;;;;;;;5.02;73.99;97311.78;5107768;27;19919;-57
2024/01/07 00:50:48;;;;;;;;;;;;;;;5.15;73.39;97308.38;5099051;28;19927;-57
2024/01/07 00:53:36;;;;;;;;;;;;;;;5.03;73.74;97316.09;5100177;27;20396;-57
2024/01/07 00:56:26;;;;;;;;;;;;;;;5.15;73.21;97311.06;5104687;28;19920;-57
2024/01/07 00:59:15;;;;;;;;;;;;;;;5.09;73.18;97314.13;5111052;27;19924;-58
2024/01/07 01:02:04;;;;;;;;;;;;;;;5.21;73.09;97317.19;5111178;27;19984;-58
2024/01/07 01:04:52;;;;;;;;;;;;;;;5.23;72.99;97318.50;5102550;27;20364;-57
2024/01/07 01:07:40;;;;;;;;;;;;;;;5.10;72.89;97318.41;5093254;28;19951;-58
2024/01/07 01:10:28;;;;;;;;;;;;;;;5.14;73.01;97324.81;5101705;28;19920;-57
2024/01/07 01:13:16;;;;;;;;;;;;;;;5.38;72.09;97322.88;5104974;28;19992;-58
2024/01/07 01:16:06;;;;;;;;;;;;;;;5.09;73.62;97322.19;5101107;28;19931;-57
2024/01/07 01:18:54;;;;;;;;;;;;;;;5.34;72.53;97327.25;5102613;28;20369;-58
2024/01/07 01:21:43;;;;;;;;;;;;;;;5.32;72.21;97329.41;5101535;28;20254;-57
2024/01/07 01:24:31;;;;;;;;;;;;;;;5.19;72.82;97336.31;5103415;27;19920;-58
2024/01/07 01:27:20;;;;;;;;;;;;;;;5.20;72.47;97337.13;5094765;27;19920;-60
2024/01/07 01:30:08;;;;;;;;;;;;;;;5.33;72.53;97335.63;5104770;27;19919;-59
2024/01/07 01:32:58;;;;;;;;;;;;;;;5.34;72.58;97338.00;5087385;28;19927;-58
2024/01/07 01:35:46;;;;;;;;;;;;;;;5.41;72.02;97335.75;5096430;28;19942;-58
2024/01/07 01:38:34;;;;;;;;;;;;;;;5.43;71.74;97336.28;5099085;28;20400;-57
2024/01/07 01:41:23;;;;;;;;;;;;;;;5.32;72.07;97342.06;5092575;28;19927;-57
2024/01/07 01:44:11;;;;;;;;;;;;;;;5.46;71.54;97341.06;5085851;28;19924;-63
2024/01/07 01:47:00;;;;;;;;;;;;;;;5.19;72.62;97339.00;5096964;28;20382;-58
2024/01/07 01:49:49;;;;;;;;;;;;;;;5.35;72.33;97338.81;5093920;28;20246;-61
2024/01/07 01:52:37;;;;;;;;;;;;;;;5.35;71.93;97333.41;5097500;28;19927;-58
2024/01/07 01:55:25;;;;;;;;;;;;;;;5.20;72.65;97339.81;5085443;28;19919;-58
2024/01/07 01:58:15;;;;;;;;;;;;;;;5.05;72.73;97332.72;5099615;28;19920;-57
2024/01/07 02:01:03;;;;;;;;;;;;;;;4.96;72.80;97339.88;5086179;28;20279;-57
2024/01/07 02:03:53;;;;;;;;;;;;;;;4.94;73.21;97334.75;5091330;28;19920;-58
2024/01/07 02:06:43;;;;;;;;;;;;;;;4.97;72.88;97338.78;5101523;28;19920;-58
2024/01/07 02:09:32;;;;;;;;;;;;;;;5.13;72.27;97340.19;5102165;28;19926;-58
2024/01/07 02:12:21;;;;;;;;;;;;;;;5.06;72.70;97342.44;5103982;28;19928;-58
2024/01/07 02:15:09;;;;;;;;;;;;;;;5.02;72.88;97346.78;5102392;28;19963;-57
2024/01/07 02:17:58;;;;;;;;;;;;;;;5.06;72.91;97344.31;5086986;28;19920;-58
2024/01/07 02:20:47;;;;;;;;;;;;;;;4.86;72.93;97343.50;5102099;28;19927;-58
2024/01/07 02:23:37;;;;;;;;;;;;;;;4.83;72.62;97341.34;5101983;28;20584;-58
2024/01/07 02:26:26;;;;;;;;;;;;;;;4.78;72.18;97348.69;5087679;28;19927;-57
2024/01/07 02:29:16;;;;;;;;;;;;;;;4.81;71.75;97340.84;5102139;28;20057;-59
2024/01/07 02:32:05;;;;;;;;;;;;;;;4.86;71.71;97343.50;5104827;28;20012;-57
2024/01/07 02:34:53;;;;;;;;;;;;;;;4.73;71.39;97344.97;5100028;28;19927;-57
2024/01/07 02:37:41;;;;;;;;;;;;;;;4.90;71.32;97354.47;5091230;28;19928;-57
2024/01/07 02:40:29;;;;;;;;;;;;;;;5.04;70.68;97352.69;5094350;28;20537;-58
2024/01/07 02:43:19;;;;;;;;;;;;;;;5.04;70.33;97352.69;5100504;28;19939;-58
2024/01/07 02:46:07;;;;;;;;;;;;;;;4.83;71.02;97348.63;5079937;28;20319;-58
2024/01/07 02:48:55;;;;;;;;;;;;;;;4.77;71.08;97350.59;5091039;28;20645;-58
2024/01/07 02:51:45;;;;;;;;;;;;;;;4.58;71.20;97358.63;5099471;28;20401;-57
2024/01/07 02:54:33;;;;;;;;;;;;;;;4.70;70.78;97350.94;5112656;28;19927;-58
2024/01/07 02:57:21;;;;;;;;;;;;;;;4.64;70.02;97354.78;5103312;27;19920;-58
2024/01/07 03:00:11;;;;;;;;;;;;;;;4.61;69.98;97363.41;5103693;27;19931;-58
2024/01/07 03:02:59;;;;;;;;;;;;;;;4.58;69.13;97361.31;5101629;27;19999;-58
2024/01/07 03:05:48;;;;;;;;;;;;;;;4.47;69.94;97357.09;5102957;28;19936;-58
2024/01/07 03:08:36;;;;;;;;;;;;;;;4.24;69.64;97363.25;5112302;27;20384;-58
2024/01/07 03:11:24;;;;;;;;;;;;;;;4.04;70.18;97367.72;5102745;28;19919;-56
2024/01/07 03:14:13;;;;;;;;;;;;;;;4.14;69.83;97361.47;5104312;28;20316;-56
2024/01/07 03:17:02;;;;;;;;;;;;;;;4.09;69.86;97373.06;5102767;28;19936;-57
2024/01/07 03:19:51;;;;;;;;;;;;;;;4.00;69.28;97373.97;5099397;27;19920;-58
2024/01/07 03:22:39;;;;;;;;;;;;;;;3.88;69.83;97364.34;5105068;28;19994;-55
2024/01/07 03:25:27;;;;;;;;;;;;;;;3.89;70.22;97373.25;5106398;28;19920;-58
2024/01/07 03:28:15;;;;;;;;;;;;;;;3.82;69.79;97378.91;5101327;28;20337;-55
2024/01/07 03:31:04;;;;;;;;;;;;;;;3.92;70.14;97378.03;5098541;27;19923;-58
2024/01/07 03:33:54;;;;;;;;;;;;;;;3.77;69.92;97370.91;5109117;27;19920;-57
2024/01/07 03:36:42;;;;;;;;;;;;;;;3.88;69.95;97377.00;5103125;27;19921;-57
2024/01/07 03:39:32;;;;;;;;;;;;;;;3.85;69.92;97374.88;5106093;27;20010;-57
2024/01/07 03:42:21;;;;;;;;;;;;;;;3.92;69.58;97375.34;5111007;27;19945;-56
2024/01/07 03:45:09;;;;;;;;;;;;;;;3.77;69.70;97383.53;5097756;27;19920;-57
2024/01/07 03:48:02;;;;;;;;;;;;;;;3.80;69.86;97380.31;5109133;27;20000;-56
2024/01/07 03:50:51;;;;;;;;;;;;;;;3.86;69.87;97385.34;5093726;28;20019;-57
2024/01/07 03:53:39;;;;;;;;;;;;;;;3.99;68.97;97389.28;5097288;27;20474;-56
2024/01/07 03:56:27;;;;;;;;;;;;;;;3.80;69.72;97385.66;5103715;27;19930;-56
2024/01/07 03:59:16;;;;;;;;;;;;;;;3.90;69.32;97388.28;5104172;27;19927;-56
2024/01/07 04:02:04;;;;;;;;;;;;;;;3.81;69.57;97393.44;5096462;27;19920;-56
2024/01/07 04:04:52;;;;;;;;;;;;;;;3.79;69.74;97394.81;5097007;27;20020;-57
2024/01/07 04:07:42;;;;;;;;;;;;;;;3.82;69.27;97396.94;5105996;28;20013;-57
2024/01/07 04:10:30;;;;;;;;;;;;;;;3.82;68.88;97399.63;5098407;28;19928;-55
2024/01/07 04:13:18;;;;;;;;;;;;;;;3.83;69.29;97415.44;5102860;27;19924;-57
2024/01/07 04:16:06;;;;;;;;;;;;;;;3.70;69.14;97410.72;5095466;27;19950;-57
2024/01/07 04:18:54;;;;;;;;;;;;;;;3.85;69.04;97415.19;5097025;27;19973;-60
2024/01/07 04:21:46;;;;;;;;;;;;;;;3.91;68.73;97416.75;5107068;28;19955;-57
2024/01/07 04:24:35;;;;;;;;;;;;;;;3.84;68.99;97413.59;5095766;28;20022;-56
2024/01/07 04:27:24;;;;;;;;;;;;;;;3.86;67.55;97417.59;5102824;27;20444;-56
2024/01/07 04:30:12;;;;;;;;;;;;;;;3.61;68.29;97433.88;5107569;27;20461;-57
2024/01/07 04:33:01;;;;;;;;;;;;;;;3.57;68.05;97438.19;5099060;27;19923;-57
2024/01/07 04:35:49;;;;;;;;;;;;;;;3.51;67.73;97439.28;5104450;27;20257;-56
2024/01/07 04:38:37;;;;;;;;;;;;;;;3.52;68.24;97439.03;5099716;27;19964;-57
2024/01/07 04:41:26;;;;;;;;;;;;;;;3.36;68.24;97434.84;5101830;27;19987;-57
2024/01/07 04:44:14;;;;;;;;;;;;;;;3.58;68.00;97440.63;5104341;27;19958;-55
2024/01/07 04:47:03;;;;;;;;;;;;;;;3.62;67.13;97444.34;5094792;27;19924;-56
2024/01/07 04:49:51;;;;;;;;;;;;;;;3.70;67.18;97451.03;5088740;28;20151;-57
2024/01/07 04:52:39;;;;;;;;;;;;;;;3.79;66.78;97452.03;5099599;27;19923;-58
2024/01/07 04:55:27;;;;;;;;;;;;;;;3.70;66.78;97451.03;5098092;27;19927;-56
2024/01/07 04:58:17;;;;;;;;;;;;;;;3.55;67.27;97459.16;5098348;27;19920;-55
2024/01/07 05:01:05;;;;;;;;;;;;;;;3.35;67.90;97465.41;5095067;28;19920;-56
2024/01/07 05:03:54;;;;;;;;;;;;;;;3.53;67.40;97462.13;5108801;27;19924;-56
2024/01/07 05:06:45;;;;;;;;;;;;;;;3.49;67.21;97469.13;5109433;27;19935;-57
2024/01/07 05:09:33;;;;;;;;;;;;;;;3.56;67.23;97471.50;5111712;27;19931;-55
2024/01/07 05:12:21;;;;;;;;;;;;;;;3.49;67.16;97476.38;5102727;27;19976;-56
2024/01/07 05:15:10;;;;;;;;;;;;;;;3.47;67.04;97483.91;5102578;27;19977;-56
2024/01/07 05:17:58;;;;;;;;;;;;;;;3.48;66.50;97485.53;5103591;27;19927;-56
2024/01/07 05:20:46;;;;;;;;;;;;;;;3.50;66.38;97483.34;5098653;27;19920;-60
2024/01/07 05:23:35;;;;;;;;;;;;;;;3.66;65.79;97495.63;5102390;28;19924;-55
2024/01/07 05:26:22;;;;;;;;;;;;;;;3.77;64.87;97489.13;5108691;27;20372;-57
2024/01/07 05:29:11;;;;;;;;;;;;;;;3.56;65.75;97488.41;5106116;27;19919;-58
2024/01/07 05:32:01;;;;;;;;;;;;;;;3.44;65.73;97496.00;5117353;27;19924;-56
2024/01/07 05:34:50;;;;;;;;;;;;;;;3.64;65.52;97495.91;5104680;27;19923;-57
2024/01/07 05:37:38;;;;;;;;;;;;;;;3.55;65.33;97500.25;5105216;28;20339;-56
2024/01/07 05:40:27;;;;;;;;;;;;;;;3.50;65.52;97505.63;5099445;28;19927;-56
2024/01/07 05:43:14;;;;;;;;;;;;;;;3.21;66.10;97505.50;5099861;28;20016;-61
2024/01/07 05:46:03;;;;;;;;;;;;;;;3.20;65.95;97508.47;5108002;28;19963;-57
2024/01/07 05:48:52;;;;;;;;;;;;;;;3.37;65.24;97508.94;5113042;27;20416;-56
2024/01/07 05:51:41;;;;;;;;;;;;;;;3.54;64.91;97516.66;5099284;28;19932;-57
2024/01/07 05:54:29;;;;;;;;;;;;;;;3.50;65.03;97515.59;5107159;28;20408;-56
2024/01/07 05:57:19;;;;;;;;;;;;;;;3.35;64.69;97513.75;5096577;28;20026;-56
2024/01/07 06:00:08;;;;;;;;;;;;;;;3.42;65.11;97516.97;5102808;28;20009;-57
2024/01/07 06:02:59;;;;;;;;;;;;;;;3.31;64.04;97520.78;5098806;28;19932;-55
2024/01/07 06:05:48;;;;;;;;;;;;;;;3.31;64.82;97523.47;5097893;28;20070;-61
2024/01/07 06:08:36;;;;;;;;;;;;;;;3.12;64.70;97534.75;5097845;28;19936;-57
2024/01/07 06:11:24;;;;;;;;;;;;;;;2.97;65.78;97521.38;5094343;28;20015;-60
2024/01/07 06:14:12;;;;;;;;;;;;;;;3.25;64.67;97530.72;5095979;28;19923;-60
2024/01/07 06:17:00;;;;;;;;;;;;;;;3.34;64.60;97530.94;5100816;28;20026;-57
2024/01/07 06:19:48;;;;;;;;;;;;;;;3.17;64.51;97541.19;5104008;28;20025;-56
2024/01/07 06:22:47;;;;;;;;;;;;;;;3.22;64.49;97528.56;5094988;28;19951;-56
2024/01/07 06:25:35;;;;;;;;;;;;;;;3.24;63.83;97547.09;5113080;27;19955;-56
2024/01/07 06:28:23;;;;;;;;;;;;;;;3.06;64.78;97545.78;5088522;28;19938;-56
2024/01/07 06:31:11;;;;;;;;;;;;;;;3.21;64.17;97553.00;5100919;27;20011;-58
2024/01/07 06:33:59;;;;;;;;;;;;;;;3.19;63.93;97552.47;5106349;27;20008;-56
2024/01/07 06:36:47;;;;;;;;;;;;;;;3.26;64.43;97542.25;5107921;28;20324;-56
2024/01/07 06:39:37;;;;;;;;;;;;;;;3.35;64.25;97551.34;5107699;27;19931;-57
2024/01/07 06:42:26;;;;;;;;;;;;;;;3.34;64.42;97560.47;5107633;27;20010;-58
2024/01/07 06:45:14;;;;;;;;;;;;;;;3.28;63.88;97566.94;5120171;27;19920;-58
2024/01/07 06:48:02;;;;;;;;;;;;;;;3.19;64.53;97564.00;5112142;27;20253;-58
2024/01/07 06:50:50;;;;;;;;;;;;;;;3.22;64.29;97562.66;5105286;27;20600;-56
2024/01/07 06:53:38;;;;;;;;;;;;;;;3.17;64.25;97562.69;5109295;27;19966;-57
2024/01/07 06:56:28;;;;;;;;;;;;;;;3.02;65.09;97561.63;5108929;28;19924;-57
2024/01/07 06:59:17;;;;;;;;;;;;;;;2.98;64.88;97567.78;5101056;28;19924;-59
2024/01/07 07:02:05;;;;;;;;;;;;;;;3.06;64.43;97570.75;5109673;27;19924;-57
2024/01/07 07:04:53;;;;;;;;;;;;;;;3.05;64.83;97568.34;5110289;28;19926;-57
2024/01/07 07:07:41;;;;;;;;;;;;;;;3.00;65.08;97571.03;5111592;27;20012;-57
2024/01/07 07:10:31;;;;;;;;;;;;;;;3.22;64.47;97584.16;5111546;28;20002;-55
2024/01/07 07:13:21;;;;;;;;;;;;;;;3.18;64.01;97578.50;5091085;28;19924;-55
2024/01/07 07:16:09;;;;;;;;;;;;;;;2.92;64.92;97583.09;5108575;27;19920;-56
2024/01/07 07:18:57;;;;;;;;;;;;;;;3.10;64.00;97577.19;5105666;27;19920;-57
2024/01/07 07:21:45;;;;;;;;;;;;;;;3.22;64.10;97590.31;5113657;27;19940;-56
2024/01/07 07:24:33;;;;;;;;;;;;;;;3.13;63.84;97583.88;5106026;27;19932;-57
2024/01/07 07:27:21;;;;;;;;;;;;;;;3.13;63.59;97595.41;5112740;27;19919;-56
2024/01/07 07:30:11;;;;;;;;;;;;;;;2.89;64.03;97592.50;5110840;27;19927;-57
2024/01/07 07:33:03;;;;;;;;;;;;;;;2.93;63.85;97592.78;5109529;27;19932;-56
2024/01/07 07:35:51;;;;;;;;;;;;;;;2.90;64.01;97604.03;5110960;27;19920;-57
2024/01/07 07:38:39;;;;;;;;;;;;;;;3.19;63.47;97606.94;5100451;28;19974;-56
2024/01/07 07:41:28;;;;;;;;;;;;;;;3.30;62.61;97610.41;5107297;27;19919;-57
2024/01/07 07:44:16;;;;;;;;;;;;;;;3.26;63.01;97620.91;5100871;27;19975;-56
2024/01/07 07:47:06;;;;;;;;;;;;;;;3.08;62.46;97618.78;5099777;27;19931;-58
2024/01/07 07:49:54;;;;;;;;;;;;;;;3.11;61.94;97626.31;5102669;27;19926;-56
2024/01/07 07:52:44;;;;;;;;;;;;;;;3.04;62.65;97631.16;5107815;27;19924;-57
2024/01/07 07:55:33;;;;;;;;;;;;;;;3.10;62.50;97638.91;5097007;27;19932;-57
2024/01/07 07:58:21;;;;;;;;;;;;;;;2.73;62.85;97635.69;5104873;27;19920;-57
2024/01/07 08:01:09;;;;;;;;;;;;;;;2.89;63.26;97642.69;5102150;28;20391;-59
2024/01/07 08:03:59;;;;;;;;;;;;;;;3.18;61.85;97650.97;5104734;27;19927;-56
2024/01/07 08:06:47;;;;;;;;;;;;;;;3.21;61.67;97649.66;5096852;28;19924;-59
2024/01/07 08:09:36;;;;;;;;;;;;;;;3.20;61.91;97656.91;5099367;27;19964;-56
2024/01/07 08:12:24;;;;;;;;;;;;;;;3.11;61.98;97662.00;5101559;28;20403;-59
2024/01/07 08:15:12;;;;;;;;;;;;;;;3.26;61.44;97657.69;5100862;28;19924;-57
2024/01/07 08:18:02;;;;;;;;;;;;;;;3.29;61.16;97657.16;5104414;27;19920;-59
2024/01/07 08:20:51;;;;;;;;;;;;;;;3.06;61.80;97661.19;5097195;28;20399;-58
2024/01/07 08:23:40;;;;;;;;;;;;;;;2.69;62.68;97658.75;5103492;27;20623;-57
2024/01/07 08:26:31;;;;;;;;;;;;;;;2.71;62.82;97667.31;5108186;27;19919;-58
2024/01/07 08:29:19;;;;;;;;;;;;;;;2.77;62.97;97668.94;5098201;27;20018;-61
2024/01/07 08:32:07;;;;;;;;;;;;;;;2.55;62.98;97656.56;5099361;27;19927;-58
2024/01/07 08:34:56;;;;;;;;;;;;;;;2.56;62.66;97660.09;5100849;27;19919;-58
2024/01/07 08:37:45;;;;;;;;;;;;;;;2.52;63.23;97665.16;5101003;27;19959;-57
2024/01/07 08:40:59;;;;;;;;;;;;;;;2.34;63.39;97674.50;5099740;27;19923;-57
2024/01/07 08:43:47;;;;;;;;;;;;;;;2.49;62.69;97672.94;5106825;27;19972;-57
2024/01/07 08:46:35;;;;;;;;;;;;;;;2.35;63.17;97688.72;5111973;27;20396;-57
2024/01/07 08:49:23;;;;;;;;;;;;;;;2.35;63.44;97686.84;5100382;28;19974;-56
2024/01/07 08:52:14;;;;;;;;;;;;;;;2.33;63.00;97696.19;5098984;27;21396;-57
2024/01/07 08:55:05;;;;;;;;;;;;;;;2.39;63.04;97700.50;5100644;27;20052;-59
2024/01/07 08:57:53;;;;;;;;;;;;;;;2.28;63.72;97704.22;5107049;27;20345;-59
2024/01/07 09:00:42;;;;;;;;;;;;;;;2.08;63.68;97711.13;5105323;27;19958;-57
2024/01/07 09:03:30;;;;;;;;;;;;;;;2.31;63.34;97709.88;5098277;27;19927;-57
2024/01/07 09:06:17;;;;;;;;;;;;;;;2.25;63.66;97712.81;5098907;28;20045;-57
2024/01/07 09:09:06;;;;;;;;;;;;;;;2.07;64.16;97719.41;5101228;28;19939;-58
2024/01/07 09:11:58;;;;;;;;;;;;;;;2.15;64.44;97718.13;5093694;28;19920;-58
2024/01/07 09:14:46;;;;;;;;;;;;;;;2.23;63.91;97722.97;5097428;28;20364;-58
2024/01/07 09:17:35;;;;;;;;;;;;;;;1.86;64.84;97728.41;5099716;27;20254;-58
2024/01/07 09:20:23;;;;;;;;;;;;;;;2.06;64.43;97745.41;5099387;27;19990;-58
2024/01/07 09:23:11;;;;;;;;;;;;;;;2.17;64.11;97740.91;5099152;28;19989;-58
2024/01/07 09:25:59;;;;;;;;;;;;;;;1.99;64.34;97742.16;5101360;28;19920;-57
2024/01/07 09:28:49;;;;;;;;;;;;;;;2.04;64.33;97744.88;5099050;27;20010;-57
2024/01/07 09:31:37;;;;;;;;;;;;;;;2.15;64.00;97751.09;5097771;28;19919;-57
2024/01/07 09:34:25;;;;;;;;;;;;;;;2.31;63.51;97757.31;5096188;27;19927;-57
2024/01/07 09:37:13;;;;;;;;;;;;;;;2.21;63.63;97752.72;5097834;27;20087;-56
2024/01/07 09:40:04;;;;;;;;;;;;;;;1.75;64.21;97762.38;5096860;28;19920;-57
2024/01/07 09:42:52;;;;;;;;;;;;;;;1.70;64.73;97754.28;5105281;28;19926;-57
2024/01/07 09:45:43;;;;;;;;;;;;;;;1.95;64.88;97754.47;5098324;28;20002;-59
2024/01/07 09:48:31;;;;;;;;;;;;;;;1.97;64.05;97754.19;5097170;28;19931;-57
2024/01/07 09:51:20;;;;;;;;;;;;;;;1.87;64.92;97759.50;5106162;28;19986;-56
2024/01/07 09:54:08;;;;;;;;;;;;;;;2.19;63.87;97770.16;5108486;28;19920;-58
2024/01/07 09:56:59;;;;;;;;;;;;;;;2.31;63.39;97762.69;5105278;28;19927;-57
2024/01/07 09:59:47;;;;;;;;;;;;;;;2.18;63.11;97768.50;5105598;28;19920;-57
2024/01/07 10:02:37;;;;;;;;;;;;;;;2.26;63.55;97771.50;5103828;28;19919;-57
2024/01/07 10:05:25;;;;;;;;;;;;;;;1.58;64.33;97771.34;5111008;28;20357;-57
2024/01/07 10:08:13;;;;;;;;;;;;;;;1.70;63.93;97773.84;5104876;27;19924;-56
2024/01/07 10:11:02;;;;;;;;;;;;;;;2.02;63.04;97786.38;5110343;27;20313;-58
2024/01/07 10:13:51;;;;;;;;;;;;;;;1.95;62.53;97785.81;5112831;28;19920;-59
2024/01/07 10:16:39;;;;;;;;;;;;;;;2.01;61.94;97790.13;5110966;27;20288;-57
2024/01/07 10:19:29;;;;;;;;;;;;;;;1.64;63.16;97782.09;5109063;27;19920;-57
2024/01/07 10:22:17;;;;;;;;;;;;;;;1.75;63.23;97789.16;5115100;28;19924;-58
2024/01/07 10:25:06;;;;;;;;;;;;;;;1.31;63.97;97778.63;5110194;27;20010;-57
2024/01/07 10:27:54;;;;;;;;;;;;;;;1.65;63.98;97776.50;5107539;27;20434;-57
2024/01/07 10:30:43;;;;;;;;;;;;;;;1.42;63.68;97782.19;5113541;28;19926;-56
2024/01/07 10:33:31;;;;;;;;;;;;;;;1.65;63.82;97778.34;5111624;27;20317;-57
2024/01/07 10:36:21;;;;;;;;;;;;;;;1.87;63.13;97786.31;5100116;28;19931;-57
2024/01/07 10:39:11;;;;;;;;;;;;;;;1.99;63.12;97782.34;5103749;28;20007;-56
2024/01/07 10:41:59;;;;;;;;;;;;;;;2.09;62.19;97787.78;5099339;28;19942;-61
2024/01/07 10:44:47;;;;;;;;;;;;;;;1.97;62.41;97792.53;5089753;28;19920;-58
2024/01/07 10:47:35;;;;;;;;;;;;;;;1.84;62.94;97784.94;5099019;28;19946;-57
2024/01/07 10:50:23;;;;;;;;;;;;;;;1.69;64.50;97790.97;5097980;27;20049;-57
2024/01/07 10:53:14;;;;;;;;;;;;;;;1.90;63.58;97783.09;5097204;27;19927;-57
2024/01/07 10:56:04;;;;;;;;;;;;;;;1.98;62.78;97788.78;5094927;28;20483;-57
2024/01/07 10:58:52;;;;;;;;;;;;;;;2.00;62.19;97788.50;5097686;28;19926;-58
2024/01/07 11:01:41;;;;;;;;;;;;;;;1.90;63.16;97791.94;5105240;27;19948;-58
2024/01/07 11:04:30;;;;;;;;;;;;;;;2.16;64.33;97787.53;5103755;28;20019;-58
2024/01/07 11:07:21;;;;;;;;;;;;;;;1.94;62.99;97784.19;5104150;27;19926;-56
2024/01/07 11:10:11;;;;;;;;;;;;;;;2.17;62.15;97782.97;5109398;28;19927;-57
2024/01/07 11:13:03;;;;;;;;;;;;;;;1.93;62.76;97780.72;5105202;28;19926;-57
2024/01/07 11:15:57;;;;;;;;;;;;;;;2.14;62.41;97791.56;5105084;28;20280;-56
2024/01/07 11:18:46;;;;;;;;;;;;;;;2.02;63.39;97792.53;5100242;27;19920;-57
2024/01/07 11:21:36;;;;;;;;;;;;;;;1.82;63.32;97787.06;5106821;28;20032;-56
2024/01/07 11:24:45;;;;;;;;;;;;;;;1.93;63.42;97796.78;5102422;27;19923;-61
2024/01/07 11:27:35;;;;;;;;;;;;;;;1.55;63.56;97798.66;5101448;27;19927;-56
2024/01/07 11:30:23;;;;;;;;;;;;;;;1.67;63.71;97800.34;5106447;27;19928;-57
2024/01/07 11:33:12;;;;;;;;;;;;;;;1.60;63.62;97799.75;5098102;27;19920;-58
2024/01/07 11:36:02;;;;;;;;;;;;;;;1.75;62.87;97797.19;5106016;27;20373;-56
2024/01/07 11:38:50;;;;;;;;;;;;;;;1.95;62.72;97791.16;5107182;27;19994;-57
2024/01/07 11:41:41;;;;;;;;;;;;;;;1.26;64.20;97795.44;5109487;27;20368;-56
2024/01/07 11:44:30;;;;;;;;;;;;;;;1.73;64.74;97804.69;5104514;27;20369;-58
2024/01/07 11:47:20;;;;;;;;;;;;;;;1.96;64.74;97803.47;5108912;27;20364;-57
2024/01/07 11:50:09;;;;;;;;;;;;;;;1.64;63.30;97806.19;5103755;27;20488;-57
2024/01/07 11:52:57;;;;;;;;;;;;;;;1.45;63.78;97803.13;5101226;28;19943;-58
2024/01/07 11:55:45;;;;;;;;;;;;;;;1.62;62.81;97813.69;5092138;28;19923;-56
2024/01/07 11:58:33;;;;;;;;;;;;;;;1.53;62.89;97814.16;5106692;27;19926;-57
2024/01/07 12:01:29;;;;;;;;;;;;;;;1.47;62.72;97812.50;5105183;28;19967;-57
2024/01/07 12:04:17;;;;;;;;;;;;;;;1.51;62.21;97808.25;5099134;28;20045;-56
2024/01/07 12:07:06;;;;;;;;;;;;;;;1.68;62.19;97816.16;5105822;27;19924;-56
2024/01/07 12:09:56;;;;;;;;;;;;;;;1.64;61.90;97815.03;5099037;28;19920;-57
2024/01/07 12:12:44;;;;;;;;;;;;;;;1.52;61.88;97809.88;5106968;27;20432;-58
2024/01/07 12:15:33;;;;;;;;;;;;;;;1.28;62.86;97819.31;5107199;27;19924;-58
2024/01/07 12:18:25;;;;;;;;;;;;;;;1.62;62.30;97811.03;5099480;27;19924;-57
2024/01/07 12:21:15;;;;;;;;;;;;;;;1.76;63.07;97818.38;5097745;27;19965;-58
2024/01/07 12:24:03;;;;;;;;;;;;;;;1.36;62.42;97824.19;5107892;28;19931;-57
2024/01/07 12:26:51;;;;;;;;;;;;;;;1.52;61.65;97820.56;5101283;27;19931;-57
2024/01/07 12:29:40;;;;;;;;;;;;;;;1.42;62.11;97812.44;5107087;28;19938;-56
2024/01/07 12:32:28;;;;;;;;;;;;;;;1.64;61.45;97822.28;5105225;28;20010;-56
2024/01/07 12:35:20;;;;;;;;;;;;;;;1.51;61.93;97813.63;5098908;27;19920;-56
2024/01/07 12:38:08;;;;;;;;;;;;;;;1.26;62.41;97834.78;5107384;28;19926;-62
2024/01/07 12:40:56;;;;;;;;;;;;;;;1.25;62.86;97825.16;5106036;28;20061;-57
2024/01/07 12:43:44;;;;;;;;;;;;;;;1.10;62.92;97830.34;5097821;28;19924;-56
2024/01/07 12:46:33;;;;;;;;;;;;;;;1.40;62.94;97833.31;5102977;27;20033;-57
2024/01/07 12:49:22;;;;;;;;;;;;;;;1.36;61.91;97821.50;5102398;28;19939;-58
2024/01/07 12:52:12;;;;;;;;;;;;;;;1.33;61.88;97834.56;5101511;28;20014;-57
2024/01/07 12:55:00;;;;;;;;;;;;;;;1.34;61.64;97831.66;5100867;28;19920;-56
2024/01/07 12:57:49;;;;;;;;;;;;;;;1.51;61.42;97834.22;5104371;28;19950;-56
2024/01/07 13:00:39;;;;;;;;;;;;;;;1.48;61.22;97834.72;5101039;28;19927;-57
2024/01/07 13:03:27;;;;;;;;;;;;;;;1.00;62.29;97849.78;5100363;28;19938;-56
2024/01/07 13:06:15;;;;;;;;;;;;;;;1.41;61.72;97848.31;5088068;28;20010;-56
2024/01/07 13:09:05;;;;;;;;;;;;;;;1.55;60.53;97857.56;5101003;27;19924;-56
2024/01/07 13:11:53;;;;;;;;;;;;;;;1.09;60.58;97864.31;5099866;28;20276;-57
2024/01/07 13:14:42;;;;;;;;;;;;;;;0.87;61.52;97860.88;5097391;27;19920;-56
2024/01/07 13:17:32;;;;;;;;;;;;;;;1.04;61.11;97862.41;5100782;27;19926;-56
2024/01/07 13:20:22;;;;;;;;;;;;;;;1.00;61.55;97861.28;5099898;27;19920;-56
2024/01/07 13:23:10;;;;;;;;;;;;;;;1.17;61.53;97860.38;5099460;27;19920;-57
2024/01/07 13:26:02;;;;;;;;;;;;;;;1.24;61.25;97871.72;5104247;27;19919;-57
2024/01/07 13:28:50;;;;;;;;;;;;;;;1.50;60.68;97875.44;5102147;27;20378;-57
2024/01/07 13:31:38;;;;;;;;;;;;;;;1.47;59.49;97876.75;5113555;27;19920;-57
2024/01/07 13:34:26;;;;;;;;;;;;;;;1.24;59.56;97875.19;5106998;27;19919;-58
2024/01/07 13:37:15;;;;;;;;;;;;;;;1.30;60.00;97876.84;5102098;27;19920;-60
2024/01/07 13:40:03;;;;;;;;;;;;;;;1.27;60.03;97871.19;5093632;28;19953;-57
2024/01/07 13:42:56;;;;;;;;;;;;;;;1.30;61.04;97876.06;5103072;27;19927;-57
2024/01/07 13:45:44;;;;;;;;;;;;;;;1.15;60.59;97878.56;5099511;27;20385;-57
2024/01/07 13:48:32;;;;;;;;;;;;;;;1.43;59.76;97880.19;5102131;28;19942;-57
2024/01/07 13:51:20;;;;;;;;;;;;;;;1.20;59.90;97886.66;5106546;28;20406;-58
2024/01/07 13:54:10;;;;;;;;;;;;;;;1.02;59.78;97888.59;5101277;28;20006;-57
2024/01/07 13:56:59;;;;;;;;;;;;;;;1.08;59.87;97877.97;5104912;28;19920;-60
2024/01/07 13:59:49;;;;;;;;;;;;;;;1.15;59.78;97879.38;5101785;28;19924;-57
2024/01/07 14:02:38;;;;;;;;;;;;;;;1.26;58.87;97885.63;5098532;28;20621;-58
2024/01/07 14:05:26;;;;;;;;;;;;;;;1.39;59.07;97892.47;5098326;28;19924;-58
2024/01/07 14:08:15;;;;;;;;;;;;;;;1.12;58.94;97895.94;5094642;28;19938;-57
2024/01/07 14:11:07;;;;;;;;;;;;;;;1.19;58.86;97895.75;5099049;28;20015;-59
2024/01/07 14:13:55;;;;;;;;;;;;;;;1.03;59.20;97908.94;5102183;28;19927;-56
2024/01/07 14:16:45;;;;;;;;;;;;;;;0.89;59.60;97914.91;5101865;28;19920;-57
2024/01/07 14:19:33;;;;;;;;;;;;;;;1.19;59.11;97911.78;5104967;28;19938;-56
2024/01/07 14:22:21;;;;;;;;;;;;;;;1.29;59.10;97911.91;5106024;28;20467;-55
2024/01/07 14:25:10;;;;;;;;;;;;;;;1.39;57.88;97921.91;5105293;28;20012;-57
2024/01/07 14:27:58;;;;;;;;;;;;;;;1.62;57.52;97920.81;5095308;28;19927;-57
2024/01/07 14:30:46;;;;;;;;;;;;;;;1.32;58.50;97938.16;5103575;28;19924;-57
2024/01/07 14:33:36;;;;;;;;;;;;;;;1.70;58.15;97931.03;5102689;28;19920;-57
2024/01/07 14:36:26;;;;;;;;;;;;;;;1.24;58.22;97941.28;5099570;28;20321;-56
2024/01/07 14:39:14;;;;;;;;;;;;;;;1.29;58.12;97941.34;5101289;28;19955;-57
2024/01/07 14:42:02;;;;;;;;;;;;;;;1.41;58.95;97938.53;5100204;28;20383;-57
2024/01/07 14:44:51;;;;;;;;;;;;;;;1.34;57.60;97951.31;5078323;28;19936;-56
2024/01/07 14:47:39;;;;;;;;;;;;;;;1.14;58.58;97959.91;5065585;28;19942;-55
2024/01/07 14:50:28;;;;;;;;;;;;;;;1.35;58.23;97959.09;5062677;28;19920;-56